createdAt,value
2022-11-24T00:02:11.230Z,81.25
2022-11-24T00:05:13.294Z,77.97
2022-11-24T00:08:15.201Z,77.42
2022-11-24T00:11:24.285Z,78.58
2022-11-24T00:14:26.634Z,77.66
2022-11-24T00:17:29.412Z,78.47
2022-11-24T00:20:31.240Z,81.67
2022-11-24T00:23:33.357Z,77.73
2022-11-24T00:26:36.242Z,76.41
2022-11-24T00:29:38.088Z,77.80
2022-11-24T00:32:39.933Z,80.04
2022-11-24T00:35:41.810Z,78.41
2022-11-24T00:38:43.859Z,76.19
2022-11-24T00:41:45.697Z,77.17
2022-11-24T00:44:47.527Z,75.77
2022-11-24T00:47:49.308Z,74.19
2022-11-24T00:50:58.288Z,75.97
2022-11-24T00:54:01.026Z,78.16
2022-11-24T00:57:02.939Z,80.81
2022-11-24T01:00:05.002Z,77.80
2022-11-24T01:03:07.630Z,76.31
2022-11-24T01:06:09.388Z,77.84
2022-11-24T01:09:11.992Z,80.92
2022-11-24T01:12:13.805Z,78.56
2022-11-24T01:15:15.609Z,78.24
2022-11-24T01:18:17.441Z,78.41
2022-11-24T01:21:20.169Z,78.79
2022-11-24T01:24:22.089Z,78.76
2022-11-24T01:27:23.936Z,78.12
2022-11-24T01:30:25.769Z,80.70
2022-11-24T01:33:27.669Z,80.94
2022-11-24T01:36:29.477Z,79.58
2022-11-24T01:39:31.301Z,78.63
2022-11-24T01:42:59.500Z,79.73
2022-11-24T01:46:24.384Z,81.25
2022-11-24T01:49:33.878Z,77.56
2022-11-24T01:52:40.113Z,77.40
2022-11-24T01:55:41.888Z,76.39
2022-11-24T01:58:43.903Z,77.30
2022-11-24T02:01:46.038Z,80.52
2022-11-24T02:04:47.948Z,79.41
2022-11-24T02:07:49.872Z,77.29
2022-11-24T02:10:51.785Z,79.62
2022-11-24T02:13:53.649Z,79.19
2022-11-24T02:16:55.420Z,79.56
2022-11-24T02:20:04.550Z,80.08
2022-11-24T02:23:09.429Z,78.15
2022-11-24T02:26:17.505Z,79.88
2022-11-24T02:29:20.624Z,76.09
2022-11-24T02:32:22.431Z,79.85
2022-11-24T02:35:25.452Z,77.38
2022-11-24T02:38:34.066Z,78.86
2022-11-24T02:41:35.854Z,80.01
2022-11-24T02:44:39.271Z,80.68
2022-11-24T02:47:41.101Z,80.59
2022-11-24T02:50:43.029Z,78.85
2022-11-24T02:53:44.830Z,78.54
2022-11-24T02:56:46.642Z,79.35
2022-11-24T02:59:48.429Z,77.72
2022-11-24T03:02:50.434Z,79.66
2022-11-24T03:05:52.325Z,78.35
2022-11-24T03:08:54.112Z,77.53
2022-11-24T03:11:55.914Z,76.64
2022-11-24T03:14:57.715Z,78.99
2022-11-24T03:17:59.543Z,75.83
2022-11-24T03:21:01.329Z,80.07
2022-11-24T03:24:03.176Z,78.42
2022-11-24T03:27:04.976Z,76.58
2022-11-24T03:30:07.165Z,75.69
2022-11-24T03:33:08.986Z,77.95
2022-11-24T03:36:10.781Z,79.07
2022-11-24T03:39:12.592Z,79.92
2022-11-24T03:42:14.387Z,80.34
2022-11-24T03:45:44.310Z,81.45
2022-11-24T03:48:38.009Z,79.28
2022-11-24T03:51:39.867Z,82.30
2022-11-24T03:54:42.389Z,81.26
2022-11-24T03:57:44.222Z,80.77
2022-11-24T04:00:46.216Z,81.31
2022-11-24T04:03:48.060Z,80.70
2022-11-24T04:06:49.883Z,80.52
2022-11-24T04:09:51.721Z,79.16
2022-11-24T04:12:53.503Z,80.15
2022-11-24T04:15:55.430Z,77.84
2022-11-24T04:18:57.604Z,79.15
2022-11-24T04:21:59.419Z,79.76
2022-11-24T04:25:01.368Z,78.75
2022-11-24T04:28:03.333Z,77.43
2022-11-24T04:31:05.526Z,77.63
2022-11-24T04:34:07.371Z,79.26
2022-11-24T04:37:09.231Z,78.95
2022-11-24T04:40:11.469Z,80.79
2022-11-24T04:43:13.564Z,81.57
2022-11-24T04:46:15.611Z,77.01
2022-11-24T04:49:17.517Z,74.43
2022-11-24T04:52:19.883Z,75.02
2022-11-24T04:55:21.712Z,73.48
2022-11-24T04:58:23.513Z,73.80
2022-11-24T05:01:25.480Z,76.21
2022-11-24T05:04:27.408Z,71.24
2022-11-24T05:07:29.430Z,69.17
2022-11-24T05:10:37.365Z,72.46
2022-11-24T05:13:39.224Z,72.53
2022-11-24T05:16:41.142Z,72.26
2022-11-24T05:19:42.937Z,69.97
2022-11-24T05:22:44.916Z,69.84
2022-11-24T05:25:47.905Z,69.36
2022-11-24T05:28:49.978Z,68.87
2022-11-24T05:31:51.821Z,70.72
2022-11-24T05:34:54.684Z,68.98
2022-11-24T05:37:57.867Z,69.28
2022-11-24T05:41:00.648Z,72.06
2022-11-24T05:44:02.529Z,73.19
2022-11-24T05:47:04.582Z,75.39
2022-11-24T05:50:06.825Z,72.57
2022-11-24T05:53:12.235Z,74.44
2022-11-24T05:56:14.148Z,74.34
2022-11-24T05:59:16.009Z,75.59
2022-11-24T06:02:17.942Z,74.81
2022-11-24T06:05:19.904Z,74.12
2022-11-24T06:08:22.953Z,70.38
2022-11-24T06:11:27.428Z,68.24
2022-11-24T06:14:29.257Z,68.67
2022-11-24T06:17:31.258Z,68.70
2022-11-24T06:20:33.296Z,67.91
2022-11-24T06:23:35.403Z,70.01
2022-11-24T06:26:37.235Z,67.58
2022-11-24T06:29:39.216Z,66.52
2022-11-24T06:32:49.137Z,69.45
2022-11-24T06:35:51.726Z,70.66
2022-11-24T06:38:54.044Z,68.81
2022-11-24T06:41:55.879Z,69.07
2022-11-24T06:44:57.707Z,67.64
2022-11-24T06:47:59.538Z,70.67
2022-11-24T06:51:02.177Z,68.41
2022-11-24T06:54:07.724Z,66.63
2022-11-24T06:57:09.540Z,65.31
2022-11-24T07:00:11.988Z,67.22
2022-11-24T07:03:14.515Z,66.22
2022-11-24T07:06:19.385Z,64.49
2022-11-24T07:09:21.330Z,65.38
2022-11-24T07:12:24.352Z,64.82
2022-11-24T07:15:26.548Z,64.80
2022-11-24T07:18:28.497Z,63.84
2022-11-24T07:21:30.848Z,63.35
2022-11-24T07:24:33.026Z,62.37
2022-11-24T07:27:35.380Z,62.47
2022-11-24T07:30:37.353Z,64.02
2022-11-24T07:33:39.275Z,62.50
2022-11-24T07:36:41.454Z,62.84
2022-11-24T07:39:43.409Z,61.33
2022-11-24T07:42:45.303Z,59.37
2022-11-24T07:45:53.320Z,61.52
2022-11-24T07:48:55.280Z,61.39
2022-11-24T07:51:57.338Z,63.14
2022-11-24T07:54:59.693Z,63.68
2022-11-24T07:58:01.553Z,63.18
2022-11-24T08:01:13.605Z,62.79
2022-11-24T08:04:15.589Z,61.66
2022-11-24T08:07:17.508Z,58.71
2022-11-24T08:10:21.896Z,59.02
2022-11-24T08:13:23.743Z,59.41
2022-11-24T08:16:25.757Z,58.23
2022-11-24T08:19:27.677Z,57.21
2022-11-24T08:22:29.801Z,57.83
2022-11-24T08:25:32.842Z,59.37
2022-11-24T08:28:35.339Z,59.08
2022-11-24T08:31:38.307Z,59.83
2022-11-24T08:34:40.221Z,62.20
2022-11-24T08:37:42.134Z,61.99
2022-11-24T08:40:43.966Z,61.16
2022-11-24T08:43:45.987Z,61.28
2022-11-24T08:46:47.853Z,60.49
2022-11-24T08:49:49.747Z,62.27
2022-11-24T08:52:52.619Z,61.63
2022-11-24T08:55:59.014Z,62.55
2022-11-24T08:59:01.264Z,62.17
2022-11-24T09:02:03.303Z,61.02
2022-11-24T09:05:12.904Z,62.62
2022-11-24T09:08:24.784Z,60.80
2022-11-24T09:11:27.398Z,61.25
2022-11-24T09:14:29.535Z,61.31
2022-11-24T09:17:31.460Z,59.32
2022-11-24T09:20:33.651Z,58.73
2022-11-24T09:23:35.998Z,57.63
2022-11-24T09:26:40.644Z,58.65
2022-11-24T09:29:45.195Z,59.07
2022-11-24T09:32:47.030Z,58.41
2022-11-24T09:35:50.040Z,60.44
2022-11-24T09:38:52.288Z,60.16
2022-11-24T09:42:12.976Z,57.31
2022-11-24T09:46:04.611Z,56.84
2022-11-24T09:49:03.576Z,57.90
2022-11-24T09:52:08.957Z,55.66
2022-11-24T09:55:34.327Z,55.43
2022-11-24T09:58:42.537Z,54.47
2022-11-24T10:01:45.114Z,55.78
2022-11-24T10:04:47.132Z,55.16
2022-11-24T10:07:57.921Z,56.33
2022-11-24T10:11:00.649Z,55.49
2022-11-24T10:14:21.118Z,58.07
2022-11-24T10:17:29.460Z,58.74
2022-11-24T10:20:31.183Z,59.45
2022-11-24T10:23:41.308Z,58.25
2022-11-24T10:26:47.014Z,56.78
2022-11-24T10:29:50.038Z,55.38
2022-11-24T10:33:01.168Z,56.90
2022-11-24T10:36:11.131Z,56.82
2022-11-24T10:39:32.471Z,56.35
2022-11-24T10:42:37.684Z,56.68
2022-11-24T10:45:39.688Z,56.18
2022-11-24T10:48:43.578Z,56.74
2022-11-24T10:52:02.141Z,58.21
2022-11-24T10:55:04.976Z,58.74
2022-11-24T10:58:14.789Z,61.69
2022-11-24T11:01:21.405Z,60.86
2022-11-24T11:04:33.640Z,61.66
2022-11-24T11:07:35.619Z,61.50
2022-11-24T11:10:38.115Z,60.19
2022-11-24T11:13:51.066Z,61.07
2022-11-24T11:16:53.510Z,59.75
2022-11-24T11:20:01.979Z,58.64
2022-11-24T11:23:13.655Z,57.23
2022-11-24T11:26:24.807Z,57.07
2022-11-24T11:36:15.887Z,60.24
2022-11-24T11:39:17.715Z,56.81
2022-11-24T11:46:00.075Z,56.68
2022-11-24T11:49:02.084Z,56.10
2022-11-24T11:52:09.255Z,57.07
2022-11-24T11:55:30.501Z,55.94
2022-11-24T11:58:35.148Z,56.82
2022-11-24T12:01:52.294Z,53.53
2022-11-24T12:04:54.205Z,55.02
2022-11-24T12:08:10.954Z,58.52
2022-11-24T12:11:21.177Z,56.99
2022-11-24T12:14:23.283Z,56.32
2022-11-24T12:17:34.153Z,55.78
2022-11-24T12:20:54.909Z,54.16
2022-11-24T12:24:05.798Z,56.15
2022-11-24T12:27:22.457Z,52.74
2022-11-24T12:30:25.203Z,54.69
2022-11-24T12:33:39.417Z,54.63
2022-11-24T12:37:00.236Z,55.92
2022-11-24T12:40:04.842Z,57.04
2022-11-24T12:43:22.047Z,55.68
2022-11-24T12:46:30.171Z,56.41
2022-11-24T12:49:51.619Z,53.24
2022-11-24T12:53:02.916Z,52.29
2022-11-24T12:56:08.690Z,51.73
2022-11-24T12:59:10.600Z,54.75
2022-11-24T13:02:31.573Z,55.58
2022-11-24T13:05:48.957Z,54.74
2022-11-24T13:08:50.910Z,57.47
2022-11-24T13:11:53.467Z,57.35
2022-11-24T13:14:55.337Z,59.46
2022-11-24T13:18:10.254Z,59.37
2022-11-24T13:21:30.861Z,60.96
2022-11-24T13:24:34.674Z,59.63
2022-11-24T13:27:40.698Z,59.88
2022-11-24T13:30:45.232Z,57.50
2022-11-24T13:33:47.114Z,59.11
2022-11-24T13:36:52.755Z,59.92
2022-11-24T13:39:58.860Z,61.31
2022-11-24T13:43:03.395Z,59.12
2022-11-24T13:46:08.024Z,59.44
2022-11-24T13:49:14.020Z,60.16
2022-11-24T13:52:34.614Z,58.85
2022-11-24T13:55:38.756Z,60.39
2022-11-24T13:58:41.437Z,61.36
2022-11-24T14:01:44.766Z,60.36
2022-11-24T14:04:46.947Z,59.96
2022-11-24T14:07:49.071Z,59.79
2022-11-24T14:10:50.942Z,60.10
2022-11-24T14:13:53.167Z,60.62
2022-11-24T14:17:05.714Z,60.68
2022-11-24T14:20:16.621Z,61.79
2022-11-24T14:23:18.486Z,61.54
2022-11-24T14:26:21.643Z,61.49
2022-11-24T14:29:23.961Z,62.73
2022-11-24T14:32:25.988Z,63.10
2022-11-24T14:35:29.385Z,64.20
2022-11-24T14:38:31.620Z,63.98
2022-11-24T14:41:33.627Z,64.24
2022-11-24T14:44:43.778Z,64.61
2022-11-24T14:47:45.670Z,63.70
2022-11-24T14:50:47.733Z,63.15
2022-11-24T14:53:51.474Z,62.61
2022-11-24T14:57:00.810Z,62.50
2022-11-24T15:00:09.541Z,65.13
2022-11-24T15:03:17.160Z,64.36
2022-11-24T15:06:19.670Z,65.18
2022-11-24T15:09:39.979Z,65.08
2022-11-24T15:12:42.693Z,64.53
2022-11-24T15:15:48.690Z,64.01
2022-11-24T15:18:57.747Z,64.05
2022-11-24T15:21:59.754Z,63.16
2022-11-24T15:25:01.769Z,62.50
2022-11-24T15:28:04.294Z,62.42
2022-11-24T15:31:07.220Z,63.71
2022-11-24T15:34:09.934Z,63.51
2022-11-24T15:37:12.819Z,62.25
2022-11-24T15:40:14.801Z,62.82
2022-11-24T15:43:19.678Z,66.15
2022-11-24T15:46:21.660Z,66.40
2022-11-24T15:49:23.804Z,63.32
2022-11-24T15:52:25.711Z,63.26
2022-11-24T15:55:27.602Z,63.42
2022-11-24T15:58:29.497Z,61.92
2022-11-24T16:01:32.525Z,61.24
2022-11-24T16:04:34.853Z,64.03
2022-11-24T16:07:37.059Z,64.44
2022-11-24T16:10:38.983Z,64.71
2022-11-24T16:13:40.900Z,63.67
2022-11-24T16:16:43.358Z,64.20
2022-11-24T16:19:45.490Z,65.26
2022-11-24T16:22:47.289Z,65.86
2022-11-24T16:25:49.330Z,65.68
2022-11-24T16:28:51.175Z,67.17
2022-11-24T16:31:53.380Z,65.47
2022-11-24T16:34:55.241Z,64.13
2022-11-24T16:37:57.117Z,66.54
2022-11-24T16:40:59.295Z,65.55
2022-11-24T16:44:01.121Z,65.24
2022-11-24T16:47:03.018Z,67.77
2022-11-24T16:50:05.124Z,68.47
2022-11-24T16:53:07.085Z,67.21
2022-11-24T16:56:09.092Z,69.21
2022-11-24T16:59:10.975Z,67.81
2022-11-24T17:02:13.318Z,68.25
2022-11-24T17:05:15.565Z,67.31
2022-11-24T17:08:17.475Z,66.54
2022-11-24T17:11:21.042Z,68.26
2022-11-24T17:14:23.002Z,68.13
2022-11-24T17:17:24.812Z,68.58
2022-11-24T17:20:26.599Z,69.23
2022-11-24T17:23:28.677Z,70.91
2022-11-24T17:26:30.804Z,68.37
2022-11-24T17:29:32.855Z,68.14
2022-11-24T17:32:35.092Z,68.53
2022-11-24T17:35:38.211Z,66.04
2022-11-24T17:38:40.043Z,68.74
2022-11-24T17:41:41.948Z,64.87
2022-11-24T17:44:43.780Z,68.91
2022-11-24T17:47:45.845Z,68.50
2022-11-24T17:50:47.908Z,68.17
2022-11-24T17:53:50.735Z,69.43
2022-11-24T17:56:52.740Z,67.54
2022-11-24T17:59:54.634Z,68.53
2022-11-24T18:02:57.908Z,67.56
2022-11-24T18:06:06.673Z,67.30
2022-11-24T18:09:08.573Z,66.84
2022-11-24T18:12:10.425Z,66.52
2022-11-24T18:15:12.315Z,65.13
2022-11-24T18:18:14.175Z,65.72
2022-11-24T18:21:16.793Z,67.53
2022-11-24T18:24:23.917Z,66.28
2022-11-24T18:27:26.232Z,65.75
2022-11-24T18:30:28.133Z,66.14
2022-11-24T18:33:30.204Z,64.97
2022-11-24T18:36:32.159Z,66.79
2022-11-24T18:39:34.103Z,67.75
2022-11-24T18:42:35.988Z,68.18
2022-11-24T18:45:38.206Z,66.46
2022-11-24T18:48:40.216Z,65.46
2022-11-24T18:51:42.091Z,64.41
2022-11-24T18:54:43.997Z,67.56
2022-11-24T18:57:45.840Z,67.54
2022-11-24T19:00:47.675Z,67.37
2022-11-24T19:03:53.486Z,66.32
2022-11-24T19:06:55.347Z,65.18
2022-11-24T19:09:57.260Z,65.57
2022-11-24T19:12:59.120Z,67.08
2022-11-24T19:16:01.108Z,68.54
2022-11-24T19:19:03.050Z,67.22
2022-11-24T19:22:05.072Z,67.00
2022-11-24T19:25:07.330Z,68.07
2022-11-24T19:28:12.601Z,67.97
2022-11-24T19:31:15.068Z,68.99
2022-11-24T19:34:17.093Z,65.91
2022-11-24T19:37:19.150Z,68.46
2022-11-24T19:40:21.015Z,67.60
2022-11-24T19:43:22.845Z,67.07
2022-11-24T19:46:29.422Z,65.76
2022-11-24T19:49:31.397Z,66.12
2022-11-24T19:52:33.197Z,65.00
2022-11-24T19:55:35.040Z,67.69
2022-11-24T19:58:37.208Z,67.92
2022-11-24T20:01:40.050Z,66.74
2022-11-24T20:04:43.035Z,68.09
2022-11-24T20:07:44.909Z,67.01
2022-11-24T20:10:46.770Z,65.78
2022-11-24T20:13:49.863Z,66.59
2022-11-24T20:16:51.878Z,68.06
2022-11-24T20:19:53.800Z,67.36
2022-11-24T20:22:55.747Z,66.99
2022-11-24T20:26:02.367Z,65.70
2022-11-24T20:29:04.660Z,64.44
2022-11-24T20:32:06.573Z,67.22
2022-11-24T20:35:12.316Z,66.63
2022-11-24T20:38:17.089Z,66.77
2022-11-24T20:41:19.990Z,65.64
2022-11-24T20:44:22.196Z,66.13
2022-11-24T20:47:24.106Z,66.79
2022-11-24T20:50:25.969Z,66.17
2022-11-24T20:53:27.918Z,65.64
2022-11-24T20:56:30.686Z,68.73
2022-11-24T20:59:32.615Z,65.64
2022-11-24T21:02:34.509Z,67.12
2022-11-24T21:05:36.431Z,66.39
2022-11-24T21:08:39.016Z,65.64
2022-11-24T21:11:41.034Z,64.70
2022-11-24T21:14:42.913Z,66.54
2022-11-24T21:17:44.779Z,64.94
2022-11-24T21:20:46.809Z,64.92
2022-11-24T21:23:48.671Z,64.07
2022-11-24T21:26:52.540Z,64.37
2022-11-24T21:29:54.399Z,64.18
2022-11-24T21:32:56.243Z,66.47
2022-11-24T21:36:02.635Z,65.28
2022-11-24T21:39:04.572Z,66.54
2022-11-24T21:42:06.492Z,66.50
2022-11-24T21:45:10.810Z,66.53
2022-11-24T21:48:12.701Z,66.00
2022-11-24T21:51:15.683Z,65.33
2022-11-24T21:54:17.554Z,67.95
2022-11-24T21:57:19.407Z,69.74
2022-11-24T22:00:21.265Z,65.27
2022-11-24T22:03:23.216Z,64.59
2022-11-24T22:06:25.079Z,64.11
2022-11-24T22:09:26.968Z,66.12
2022-11-24T22:12:28.949Z,67.20
2022-11-24T22:15:30.768Z,66.30
2022-11-24T22:18:33.235Z,64.49
2022-11-24T22:21:35.042Z,65.60
2022-11-24T22:24:37.186Z,65.11
2022-11-24T22:27:39.593Z,63.50
2022-11-24T22:30:41.421Z,63.97
2022-11-24T22:33:43.954Z,63.84
2022-11-24T22:36:45.781Z,66.49
2022-11-24T22:39:47.608Z,67.81
2022-11-24T22:42:49.497Z,67.27
2022-11-24T22:45:51.411Z,66.01
2022-11-24T22:48:54.060Z,64.47
2022-11-24T22:51:55.920Z,66.67
2022-11-24T22:54:57.857Z,67.92
2022-11-24T22:57:59.685Z,67.23
2022-11-24T23:01:05.444Z,67.93
2022-11-24T23:04:07.356Z,67.67
2022-11-24T23:07:09.772Z,67.84
2022-11-24T23:10:11.838Z,66.99
2022-11-24T23:13:13.669Z,68.90
2022-11-24T23:16:16.903Z,70.95
2022-11-24T23:19:18.867Z,68.39
2022-11-24T23:22:20.701Z,67.76
2022-11-24T23:25:22.644Z,66.56
2022-11-24T23:28:24.494Z,67.80
2022-11-24T23:31:29.336Z,65.33
2022-11-24T23:34:31.383Z,64.23
2022-11-24T23:38:00.001Z,64.04
2022-11-24T23:40:56.188Z,65.08
2022-11-24T23:43:58.154Z,63.64
2022-11-24T23:47:00.031Z,64.04
2022-11-24T23:50:02.047Z,65.49
2022-11-24T23:53:03.880Z,65.67
2022-11-24T23:56:05.980Z,68.12
2022-11-24T23:59:09.909Z,67.74
